createdAt,value
2019-03-13T00:01:50.331Z,0
2019-03-13T00:02:22.316Z,0
2019-03-13T00:02:54.301Z,0
2019-03-13T00:03:26.284Z,0
2019-03-13T00:03:58.258Z,0
2019-03-13T00:04:30.246Z,0
2019-03-13T00:05:02.223Z,0
2019-03-13T00:05:34.172Z,0
2019-03-13T00:06:06.231Z,0
2019-03-13T00:06:38.195Z,0
2019-03-13T00:07:10.171Z,0
2019-03-13T00:07:42.157Z,0
2019-03-13T00:08:14.155Z,0
2019-03-13T00:10:05.577Z,0
2019-03-13T00:10:37.535Z,0
2019-03-13T00:11:09.500Z,0
2019-03-13T00:11:41.542Z,0
2019-03-13T00:12:13.502Z,0
2019-03-13T00:12:45.471Z,0
2019-03-13T00:13:17.440Z,0
2019-03-13T00:13:49.409Z,0
2019-03-13T00:14:21.389Z,0
2019-03-13T00:14:53.373Z,0
2019-03-13T00:15:25.345Z,0
2019-03-13T00:15:57.310Z,0
2019-03-13T00:16:29.292Z,0
2019-03-13T00:18:20.829Z,0
2019-03-13T00:20:12.124Z,0
2019-03-13T00:20:44.105Z,0
2019-03-13T00:21:16.118Z,0
2019-03-13T00:21:48.093Z,0
2019-03-13T00:22:20.076Z,0
2019-03-13T00:22:52.083Z,0
2019-03-13T00:23:24.043Z,0
2019-03-13T00:25:15.349Z,0
2019-03-13T00:25:47.351Z,0
2019-03-13T00:27:39.058Z,0
2019-03-13T00:28:11.065Z,0
2019-03-13T00:28:43.066Z,0
2019-03-13T00:29:15.080Z,0
2019-03-13T00:31:06.650Z,0
2019-03-13T00:31:38.577Z,0
2019-03-13T00:32:10.538Z,0
2019-03-13T00:32:42.527Z,0
2019-03-13T00:33:14.506Z,0
2019-03-13T00:35:05.933Z,0
2019-03-13T00:35:37.912Z,0
2019-03-13T00:37:29.459Z,0
2019-03-13T00:39:20.743Z,0
2019-03-13T00:39:52.693Z,0
2019-03-13T00:41:44.135Z,0
2019-03-13T00:42:16.105Z,0
2019-03-13T00:45:26.949Z,0
2019-03-13T00:45:58.878Z,0
2019-03-13T00:46:30.842Z,0
2019-03-13T00:47:02.790Z,0
2019-03-13T00:47:34.761Z,0
2019-03-13T00:49:26.070Z,0
2019-03-13T00:49:58.026Z,0
2019-03-13T00:50:30.072Z,0
2019-03-13T00:52:21.744Z,0
2019-03-13T00:52:53.740Z,0
2019-03-13T00:53:25.746Z,0
2019-03-13T00:53:57.694Z,0
2019-03-13T00:54:29.675Z,0
2019-03-13T00:55:01.655Z,0
2019-03-13T00:55:33.637Z,0
2019-03-13T00:56:05.615Z,0
2019-03-13T00:56:37.639Z,0
2019-03-13T00:57:09.589Z,0
2019-03-13T00:57:41.563Z,0
2019-03-13T00:58:13.636Z,0
2019-03-13T00:58:45.615Z,0
2019-03-13T00:59:17.590Z,0
2019-03-13T00:59:49.599Z,0
2019-03-13T01:00:21.559Z,0
2019-03-13T01:00:54.349Z,0
2019-03-13T01:01:26.305Z,0
2019-03-13T01:01:58.306Z,0
2019-03-13T01:02:30.271Z,0
2019-03-13T01:03:02.234Z,0
2019-03-13T01:03:34.212Z,0
2019-03-13T01:05:25.752Z,0
2019-03-13T01:05:57.740Z,0
2019-03-13T01:06:29.756Z,0
2019-03-13T01:07:01.779Z,0
2019-03-13T01:07:33.749Z,0
2019-03-13T01:09:24.969Z,0
2019-03-13T01:09:56.949Z,0
2019-03-13T01:10:28.939Z,0
2019-03-13T01:11:00.925Z,0
2019-03-13T01:11:32.881Z,0
2019-03-13T01:14:44.090Z,0
2019-03-13T01:15:16.045Z,0
2019-03-13T01:15:48.015Z,0
2019-03-13T01:16:20.024Z,0
2019-03-13T01:18:11.586Z,0
2019-03-13T01:18:43.574Z,0
2019-03-13T01:19:15.556Z,0
2019-03-13T01:19:47.529Z,0
2019-03-13T01:20:19.495Z,0
2019-03-13T01:20:51.485Z,0
2019-03-13T01:21:23.451Z,0
2019-03-13T01:21:55.446Z,0
2019-03-13T01:22:27.423Z,0
2019-03-13T01:22:59.411Z,0
2019-03-13T01:23:31.372Z,0
2019-03-13T01:24:03.348Z,0
2019-03-13T01:24:35.289Z,0
2019-03-13T01:25:07.262Z,0
2019-03-13T01:25:39.241Z,0
2019-03-13T01:26:11.190Z,0
2019-03-13T01:26:43.292Z,0
2019-03-13T01:27:15.240Z,0
2019-03-13T01:27:47.227Z,0
2019-03-13T01:28:19.189Z,0
2019-03-13T01:28:51.153Z,0
2019-03-13T01:29:23.169Z,0
2019-03-13T01:29:55.153Z,0
2019-03-13T01:30:27.120Z,0
2019-03-13T01:30:59.082Z,0
2019-03-13T01:31:31.053Z,0
2019-03-13T01:33:22.696Z,0
2019-03-13T01:33:54.674Z,0
2019-03-13T01:34:26.641Z,0
2019-03-13T01:34:58.611Z,0
2019-03-13T01:35:30.561Z,0
2019-03-13T01:36:02.541Z,0
2019-03-13T01:36:34.516Z,0
2019-03-13T01:37:06.579Z,0
2019-03-13T01:37:38.581Z,0
2019-03-13T01:38:10.570Z,0
2019-03-13T01:38:42.533Z,0
2019-03-13T01:39:14.517Z,0
2019-03-13T01:39:46.501Z,0
2019-03-13T01:41:37.856Z,0
2019-03-13T01:42:09.834Z,0
2019-03-13T01:44:01.154Z,0
2019-03-13T01:44:33.114Z,0
2019-03-13T01:45:05.120Z,0
2019-03-13T01:45:37.060Z,0
2019-03-13T01:47:28.485Z,0
2019-03-13T01:48:00.455Z,0
2019-03-13T01:48:32.410Z,0
2019-03-13T01:49:04.372Z,0
2019-03-13T01:49:36.355Z,0
2019-03-13T01:50:08.324Z,0
2019-03-13T01:50:40.297Z,0
2019-03-13T01:51:12.299Z,0
2019-03-13T01:51:44.241Z,0
2019-03-13T01:52:16.226Z,0
2019-03-13T01:54:07.490Z,0
2019-03-13T01:54:39.475Z,0
2019-03-13T01:55:11.456Z,0
2019-03-13T01:55:43.411Z,0
2019-03-13T01:56:15.397Z,0
2019-03-13T01:56:47.414Z,0
2019-03-13T01:57:19.379Z,0
2019-03-13T01:57:51.348Z,0
2019-03-13T01:58:23.304Z,0
2019-03-13T01:58:55.305Z,0
2019-03-13T01:59:27.285Z,0
2019-03-13T01:59:59.242Z,0
2019-03-13T02:00:31.320Z,0
2019-03-13T02:01:03.280Z,0
2019-03-13T02:01:35.227Z,0
2019-03-13T02:02:07.238Z,0
2019-03-13T02:02:39.219Z,0
2019-03-13T02:03:11.187Z,0
2019-03-13T02:03:43.153Z,0
2019-03-13T02:04:15.145Z,0
2019-03-13T02:04:47.118Z,0
2019-03-13T02:05:19.166Z,0
2019-03-13T02:05:51.180Z,0
2019-03-13T02:06:23.155Z,0
2019-03-13T02:06:55.118Z,0
2019-03-13T02:07:27.089Z,0
2019-03-13T02:07:59.095Z,0
2019-03-13T02:08:31.090Z,0
2019-03-13T02:09:03.082Z,0
2019-03-13T02:09:35.000Z,0
2019-03-13T02:10:06.979Z,0
2019-03-13T02:10:38.946Z,0
2019-03-13T02:11:10.905Z,0
2019-03-13T02:13:02.289Z,0
2019-03-13T02:13:34.266Z,0
2019-03-13T02:14:06.222Z,0
2019-03-13T02:14:38.228Z,0
2019-03-13T02:15:10.220Z,0
2019-03-13T02:17:01.494Z,0
2019-03-13T02:17:33.430Z,0
2019-03-13T02:18:05.406Z,0
2019-03-13T02:18:37.367Z,0
2019-03-13T02:19:09.304Z,0
2019-03-13T02:19:41.259Z,0
2019-03-13T02:21:32.708Z,0
2019-03-13T02:22:04.671Z,0
2019-03-13T02:22:36.641Z,0
2019-03-13T02:23:08.628Z,0
2019-03-13T02:23:40.621Z,0
2019-03-13T02:24:12.652Z,0
2019-03-13T02:24:44.650Z,0
2019-03-13T02:25:16.635Z,0
2019-03-13T02:25:48.607Z,0
2019-03-13T02:26:20.575Z,0
2019-03-13T02:26:52.545Z,0
2019-03-13T02:27:24.579Z,0
2019-03-13T02:27:56.568Z,0
2019-03-13T02:28:28.587Z,0
2019-03-13T02:29:00.555Z,0
2019-03-13T02:29:32.531Z,0
2019-03-13T02:30:04.532Z,0
2019-03-13T02:30:36.536Z,0
2019-03-13T02:31:08.529Z,0
2019-03-13T02:31:40.536Z,0
2019-03-13T02:32:12.534Z,0
2019-03-13T02:32:44.507Z,0
2019-03-13T02:33:16.519Z,0
2019-03-13T02:33:48.526Z,0
2019-03-13T02:34:20.641Z,0
2019-03-13T02:34:52.635Z,0
2019-03-13T02:35:24.620Z,0
2019-03-13T02:35:56.637Z,0
2019-03-13T02:36:28.647Z,0
2019-03-13T02:37:00.605Z,0
2019-03-13T02:37:32.626Z,0
2019-03-13T02:38:04.727Z,0
2019-03-13T02:38:36.702Z,0
2019-03-13T02:39:08.721Z,0
2019-03-13T02:39:40.720Z,0
2019-03-13T02:40:12.720Z,0
2019-03-13T02:40:44.888Z,0
2019-03-13T02:41:17.005Z,0
2019-03-13T02:41:49.009Z,0
2019-03-13T02:42:21.056Z,0
2019-03-13T02:42:53.038Z,0
2019-03-13T02:43:25.042Z,0
2019-03-13T02:43:57.052Z,0
2019-03-13T02:44:29.050Z,0
2019-03-13T02:45:01.236Z,0
2019-03-13T02:45:33.353Z,0
2019-03-13T02:46:05.515Z,0
2019-03-13T02:46:37.512Z,0
2019-03-13T02:47:09.496Z,0
2019-03-13T02:47:41.570Z,0
2019-03-13T02:48:13.572Z,0
2019-03-13T02:48:45.573Z,0
2019-03-13T02:49:17.581Z,0
2019-03-13T02:49:49.569Z,0
2019-03-13T02:50:21.609Z,0
2019-03-13T02:50:53.712Z,0
2019-03-13T02:51:25.748Z,0
2019-03-13T02:51:57.751Z,0
2019-03-13T02:52:29.739Z,0
2019-03-13T02:53:01.753Z,0
2019-03-13T02:53:33.753Z,0
2019-03-13T02:54:05.913Z,0
2019-03-13T02:54:37.937Z,0
2019-03-13T02:55:09.968Z,0
2019-03-13T02:55:42.088Z,0
2019-03-13T02:56:14.072Z,0
2019-03-13T02:56:46.072Z,0
2019-03-13T02:57:18.146Z,0
2019-03-13T02:57:50.121Z,0
2019-03-13T02:58:22.111Z,0
2019-03-13T02:58:54.126Z,0
2019-03-13T02:59:26.118Z,0
2019-03-13T02:59:58.112Z,0
2019-03-13T03:00:30.096Z,0
2019-03-13T03:01:02.098Z,0
2019-03-13T03:01:34.089Z,0
2019-03-13T03:02:06.110Z,0
2019-03-13T03:02:38.120Z,0
2019-03-13T03:03:10.112Z,0
2019-03-13T03:03:42.114Z,0
2019-03-13T03:04:14.145Z,0
2019-03-13T03:04:46.150Z,0
2019-03-13T03:05:18.201Z,0
2019-03-13T03:05:50.221Z,0
2019-03-13T03:06:22.187Z,0
2019-03-13T03:06:54.195Z,0
2019-03-13T03:07:26.243Z,0
2019-03-13T03:07:58.233Z,0
2019-03-13T03:08:30.249Z,0
2019-03-13T03:09:02.242Z,0
2019-03-13T03:09:34.250Z,0
2019-03-13T03:10:06.257Z,0
2019-03-13T03:10:38.239Z,0
2019-03-13T03:11:10.232Z,0
2019-03-13T03:11:42.239Z,0
2019-03-13T03:12:14.233Z,0
2019-03-13T03:12:46.193Z,0
2019-03-13T03:13:18.229Z,0
2019-03-13T03:13:50.216Z,0
2019-03-13T03:14:22.213Z,0
2019-03-13T03:14:54.185Z,0
2019-03-13T03:15:26.182Z,0
2019-03-13T03:15:58.207Z,0
2019-03-13T03:16:30.198Z,0
2019-03-13T03:17:02.240Z,0
2019-03-13T03:17:34.404Z,0
2019-03-13T03:18:06.382Z,0
2019-03-13T03:18:38.528Z,0
2019-03-13T03:19:10.511Z,0
2019-03-13T03:19:42.505Z,0
2019-03-13T03:20:14.510Z,0
2019-03-13T03:20:46.548Z,0
2019-03-13T03:21:18.545Z,0
2019-03-13T03:21:50.536Z,0
2019-03-13T03:22:22.513Z,0
2019-03-13T03:22:54.519Z,0
2019-03-13T03:23:26.531Z,0
2019-03-13T03:23:58.524Z,0
2019-03-13T03:24:30.519Z,0
2019-03-13T03:25:02.762Z,0
2019-03-13T03:25:34.753Z,0
2019-03-13T03:26:06.735Z,0
2019-03-13T03:26:38.710Z,0
2019-03-13T03:27:10.708Z,0
2019-03-13T03:27:42.795Z,0
2019-03-13T03:28:14.852Z,0
2019-03-13T03:28:46.832Z,0
2019-03-13T03:29:18.853Z,0
2019-03-13T03:29:50.846Z,0
2019-03-13T03:30:23.791Z,0
2019-03-13T03:30:56.011Z,0
2019-03-13T03:31:28.024Z,0
2019-03-13T03:32:00.194Z,0
2019-03-13T03:32:32.293Z,0
2019-03-13T03:33:04.380Z,0
2019-03-13T03:33:36.500Z,0
2019-03-13T03:34:08.527Z,0
2019-03-13T03:34:40.716Z,0
2019-03-13T03:35:12.742Z,0
2019-03-13T03:35:44.735Z,0
2019-03-13T03:36:16.717Z,0
2019-03-13T03:36:48.721Z,0
2019-03-13T03:37:20.740Z,0
2019-03-13T03:37:52.948Z,0
2019-03-13T03:38:24.986Z,0
2019-03-13T03:38:56.987Z,0
2019-03-13T03:39:28.979Z,0
2019-03-13T03:40:01.263Z,0
2019-03-13T03:40:33.241Z,0
2019-03-13T03:41:05.256Z,0
2019-03-13T03:41:37.249Z,0
2019-03-13T03:42:09.244Z,0
2019-03-13T03:42:41.226Z,0
2019-03-13T03:43:13.235Z,0
2019-03-13T03:43:45.263Z,0
2019-03-13T03:44:17.258Z,0
2019-03-13T03:44:49.274Z,0
2019-03-13T03:45:21.415Z,0
2019-03-13T03:45:53.394Z,0
2019-03-13T03:46:25.385Z,0
2019-03-13T03:46:57.387Z,0
2019-03-13T03:47:29.371Z,0
2019-03-13T03:48:01.407Z,0
2019-03-13T03:48:33.421Z,0
2019-03-13T03:49:05.486Z,0
2019-03-13T03:49:37.461Z,0
2019-03-13T03:50:09.443Z,0
2019-03-13T03:50:41.421Z,0
2019-03-13T03:51:13.408Z,0
2019-03-13T03:51:45.409Z,0
2019-03-13T03:52:17.413Z,0
2019-03-13T03:52:49.498Z,0
2019-03-13T03:53:21.491Z,0
2019-03-13T03:53:53.483Z,0
2019-03-13T03:54:25.513Z,0
2019-03-13T03:54:57.507Z,0
2019-03-13T03:55:29.503Z,0
2019-03-13T03:56:01.501Z,0
2019-03-13T03:56:33.497Z,0
2019-03-13T03:57:05.485Z,0
2019-03-13T03:57:37.483Z,0
2019-03-13T03:58:09.477Z,0
2019-03-13T03:58:41.528Z,0
2019-03-13T03:59:13.564Z,0
2019-03-13T03:59:45.559Z,0
2019-03-13T04:00:17.718Z,0
2019-03-13T04:00:49.775Z,0
2019-03-13T04:01:21.764Z,0
2019-03-13T04:01:53.745Z,0
2019-03-13T04:02:25.777Z,0
2019-03-13T04:02:57.827Z,0
2019-03-13T04:03:29.822Z,0
2019-03-13T04:04:01.832Z,0
2019-03-13T04:04:33.839Z,0
2019-03-13T04:05:05.827Z,0
2019-03-13T04:05:37.812Z,0
2019-03-13T04:06:09.816Z,0
2019-03-13T04:06:41.812Z,0
2019-03-13T04:07:13.795Z,0
2019-03-13T04:07:45.832Z,0
2019-03-13T04:08:17.841Z,0
2019-03-13T04:08:49.895Z,0
2019-03-13T04:09:21.910Z,0
2019-03-13T04:09:53.938Z,0
2019-03-13T04:10:25.915Z,0
2019-03-13T04:10:57.914Z,0
2019-03-13T04:11:29.920Z,0
2019-03-13T04:12:01.938Z,0
2019-03-13T04:12:33.941Z,0
2019-03-13T04:13:05.932Z,0
2019-03-13T04:13:37.925Z,0
2019-03-13T04:14:09.914Z,0
2019-03-13T04:14:41.899Z,0
2019-03-13T04:15:13.885Z,0
2019-03-13T04:15:45.880Z,0
2019-03-13T04:16:17.871Z,0
2019-03-13T04:16:49.939Z,0
2019-03-13T04:17:21.937Z,0
2019-03-13T04:17:53.935Z,0
2019-03-13T04:18:25.943Z,0
2019-03-13T04:18:57.928Z,0
2019-03-13T04:19:29.916Z,0
2019-03-13T04:20:02.378Z,0
2019-03-13T04:20:34.452Z,0
2019-03-13T04:21:06.477Z,0
2019-03-13T04:21:38.472Z,0
2019-03-13T04:22:10.443Z,0
2019-03-13T04:22:42.466Z,0
2019-03-13T04:23:14.487Z,0
2019-03-13T04:23:46.489Z,0
2019-03-13T04:24:18.468Z,0
2019-03-13T04:24:50.459Z,0
2019-03-13T04:25:22.453Z,0
2019-03-13T04:25:54.581Z,0
2019-03-13T04:26:26.681Z,0
2019-03-13T04:26:58.682Z,0
2019-03-13T04:27:30.670Z,0
2019-03-13T04:28:03.571Z,0
2019-03-13T04:28:35.568Z,0
2019-03-13T04:29:07.562Z,0
2019-03-13T04:29:39.557Z,0
2019-03-13T04:30:11.593Z,0
2019-03-13T04:30:43.606Z,0
2019-03-13T04:31:15.628Z,0
2019-03-13T04:31:47.599Z,0
2019-03-13T04:32:19.582Z,0
2019-03-13T04:32:51.582Z,0
2019-03-13T04:33:23.601Z,0
2019-03-13T04:33:55.612Z,0
2019-03-13T04:34:27.614Z,0
2019-03-13T04:34:59.620Z,0
2019-03-13T04:35:31.613Z,0
2019-03-13T04:36:03.606Z,0
2019-03-13T04:36:35.612Z,0
2019-03-13T04:37:07.651Z,0
2019-03-13T04:37:39.660Z,0
2019-03-13T04:38:11.666Z,0
2019-03-13T04:38:43.655Z,0
2019-03-13T04:39:15.707Z,0
2019-03-13T04:39:47.722Z,0
2019-03-13T04:40:19.737Z,0
2019-03-13T04:40:51.774Z,0
2019-03-13T04:41:23.859Z,0
2019-03-13T04:41:55.829Z,0
2019-03-13T04:42:27.809Z,0
2019-03-13T04:42:59.815Z,0
2019-03-13T04:43:31.821Z,0
2019-03-13T04:44:03.805Z,0
2019-03-13T04:44:35.784Z,0
2019-03-13T04:45:07.793Z,0
2019-03-13T04:45:39.759Z,0
2019-03-13T04:46:11.762Z,0
2019-03-13T04:46:43.737Z,0
2019-03-13T04:47:15.722Z,0
2019-03-13T04:47:47.700Z,0
2019-03-13T04:48:19.684Z,0
2019-03-13T04:48:51.651Z,0
2019-03-13T04:49:23.652Z,0
2019-03-13T04:49:55.727Z,0
2019-03-13T04:50:27.695Z,0
2019-03-13T04:50:59.683Z,0
2019-03-13T04:51:31.650Z,0
2019-03-13T04:52:03.619Z,0
2019-03-13T04:52:35.582Z,0
2019-03-13T04:53:07.570Z,0
2019-03-13T04:53:39.538Z,0
2019-03-13T04:54:11.504Z,0
2019-03-13T04:54:43.481Z,0
2019-03-13T04:55:15.522Z,0
2019-03-13T04:55:47.505Z,0
2019-03-13T04:56:19.508Z,0
2019-03-13T04:56:51.515Z,0
2019-03-13T04:57:23.496Z,0
2019-03-13T04:57:55.482Z,0
2019-03-13T04:58:27.441Z,0
2019-03-13T04:58:59.414Z,0
2019-03-13T04:59:31.379Z,0
2019-03-13T05:00:03.380Z,0
2019-03-13T05:00:35.377Z,0
2019-03-13T05:01:07.375Z,0
2019-03-13T05:01:39.420Z,0
2019-03-13T05:02:11.389Z,0
2019-03-13T05:02:43.367Z,0
2019-03-13T05:03:15.354Z,0
2019-03-13T05:03:47.324Z,0
2019-03-13T05:04:19.296Z,0
2019-03-13T05:04:51.269Z,0
2019-03-13T05:05:23.250Z,0
2019-03-13T05:05:55.233Z,0
2019-03-13T05:06:27.213Z,0
2019-03-13T05:06:59.249Z,0
2019-03-13T05:07:31.229Z,0
2019-03-13T05:08:03.220Z,0
2019-03-13T05:08:47.009Z,0
2019-03-13T05:09:19.009Z,0
2019-03-13T05:09:50.989Z,0
2019-03-13T05:10:22.973Z,0
2019-03-13T05:10:54.978Z,0
2019-03-13T05:11:26.961Z,0
2019-03-13T05:11:58.951Z,0
2019-03-13T05:12:30.924Z,0
2019-03-13T05:13:03.754Z,0
2019-03-13T05:13:35.903Z,0
2019-03-13T05:14:07.885Z,0
2019-03-13T05:14:39.863Z,0
2019-03-13T05:15:11.838Z,0
2019-03-13T05:15:43.808Z,0
2019-03-13T05:16:15.795Z,0
2019-03-13T05:16:47.786Z,0
2019-03-13T05:17:19.772Z,0
2019-03-13T05:17:51.768Z,0
2019-03-13T05:18:23.752Z,0
2019-03-13T05:18:55.760Z,0
2019-03-13T05:19:27.740Z,0
2019-03-13T05:19:59.715Z,0
2019-03-13T05:20:31.712Z,0
2019-03-13T05:21:03.722Z,0
2019-03-13T05:21:35.694Z,0
2019-03-13T05:22:07.669Z,0
2019-03-13T05:22:39.618Z,0
2019-03-13T05:23:11.595Z,0
2019-03-13T05:23:43.588Z,0
2019-03-13T05:24:15.556Z,0
2019-03-13T05:24:47.527Z,0
2019-03-13T05:25:20.927Z,0
2019-03-13T05:25:52.925Z,0
2019-03-13T05:26:24.900Z,0
2019-03-13T05:26:56.888Z,0
2019-03-13T05:27:28.862Z,0
2019-03-13T05:28:00.847Z,0
2019-03-13T05:28:32.826Z,0
2019-03-13T05:29:04.820Z,0
2019-03-13T05:29:36.791Z,0
2019-03-13T05:30:08.773Z,0
2019-03-13T05:30:40.746Z,0
2019-03-13T05:31:12.725Z,0
2019-03-13T05:31:44.715Z,0
2019-03-13T05:32:16.725Z,0
2019-03-13T05:32:48.708Z,0
2019-03-13T05:33:20.714Z,0
2019-03-13T05:33:52.719Z,0
2019-03-13T05:34:24.757Z,0
2019-03-13T05:34:56.756Z,0
2019-03-13T05:35:28.756Z,0
2019-03-13T05:36:00.734Z,0
2019-03-13T05:36:32.723Z,0
2019-03-13T05:37:04.845Z,0
2019-03-13T05:37:36.819Z,0
2019-03-13T05:38:08.784Z,0
2019-03-13T05:38:40.876Z,0
2019-03-13T05:39:12.910Z,0
2019-03-13T05:39:44.897Z,0
2019-03-13T05:40:16.890Z,0
2019-03-13T05:40:48.861Z,0
2019-03-13T05:41:20.851Z,0
2019-03-13T05:41:52.819Z,0
2019-03-13T05:42:24.801Z,0
2019-03-13T05:42:56.802Z,0
2019-03-13T05:43:28.778Z,0
2019-03-13T05:44:00.753Z,0
2019-03-13T05:44:32.736Z,0
2019-03-13T05:45:04.719Z,0
2019-03-13T05:45:36.749Z,0
2019-03-13T05:46:08.772Z,0
2019-03-13T05:46:40.763Z,0
2019-03-13T05:47:12.738Z,0
2019-03-13T05:47:44.715Z,0
2019-03-13T05:48:16.682Z,0
2019-03-13T05:48:48.672Z,0
2019-03-13T05:49:20.653Z,0
2019-03-13T05:49:52.632Z,0
2019-03-13T05:50:24.629Z,0
2019-03-13T05:50:56.597Z,0
2019-03-13T05:51:28.604Z,0
2019-03-13T05:52:00.652Z,0
2019-03-13T05:52:32.640Z,0
2019-03-13T05:53:04.619Z,0
2019-03-13T05:53:36.606Z,0
2019-03-13T05:54:08.580Z,0
2019-03-13T05:54:40.579Z,0
2019-03-13T05:55:12.541Z,0
2019-03-13T05:55:44.516Z,0
2019-03-13T05:56:16.493Z,0
2019-03-13T05:56:48.462Z,0
2019-03-13T05:57:20.458Z,0
2019-03-13T05:57:52.423Z,0
2019-03-13T05:58:24.399Z,0
2019-03-13T05:58:56.366Z,0
2019-03-13T05:59:28.377Z,0
2019-03-13T06:00:00.505Z,0
2019-03-13T06:00:32.518Z,0
2019-03-13T06:01:04.504Z,0
2019-03-13T06:01:36.497Z,0
2019-03-13T06:02:08.476Z,0
2019-03-13T06:02:40.458Z,0
2019-03-13T06:03:12.433Z,0
2019-03-13T06:03:44.454Z,0
2019-03-13T06:04:16.447Z,0
2019-03-13T06:04:48.420Z,0
2019-03-13T06:05:20.424Z,0
2019-03-13T06:05:52.509Z,0
2019-03-13T06:06:24.477Z,0
2019-03-13T06:06:56.443Z,0
2019-03-13T06:07:28.414Z,0
2019-03-13T06:08:00.374Z,0
2019-03-13T06:08:32.372Z,0
2019-03-13T06:09:04.369Z,0
2019-03-13T06:09:36.352Z,0
2019-03-13T06:10:08.469Z,0
2019-03-13T06:10:40.506Z,0
2019-03-13T06:11:12.498Z,0
2019-03-13T06:11:44.520Z,0
2019-03-13T06:12:16.507Z,0
2019-03-13T06:12:48.491Z,0
2019-03-13T06:13:20.472Z,0
2019-03-13T06:13:52.471Z,0
2019-03-13T06:14:24.495Z,0
2019-03-13T06:14:56.489Z,0
2019-03-13T06:15:28.473Z,0
2019-03-13T06:16:00.485Z,0
2019-03-13T06:16:32.451Z,0
2019-03-13T06:17:04.446Z,0
2019-03-13T06:17:36.510Z,5
2019-03-13T06:18:11.496Z,5
2019-03-13T06:18:43.470Z,5
2019-03-13T06:19:15.463Z,5
2019-03-13T06:19:47.441Z,5
2019-03-13T06:20:19.421Z,5
2019-03-13T06:20:51.413Z,5
2019-03-13T06:21:23.394Z,5
2019-03-13T06:21:55.379Z,5
2019-03-13T06:22:27.343Z,5
2019-03-13T06:22:59.318Z,5
2019-03-13T06:23:31.406Z,5
2019-03-13T06:24:03.576Z,5
2019-03-13T06:24:35.678Z,5
2019-03-13T06:25:07.795Z,5
2019-03-13T06:25:39.913Z,5
2019-03-13T06:26:11.891Z,5
2019-03-13T06:26:43.878Z,5
2019-03-13T06:27:15.848Z,10
2019-03-13T06:27:48.524Z,10
2019-03-13T06:28:20.616Z,10
2019-03-13T06:28:52.637Z,10
2019-03-13T06:29:24.651Z,10
2019-03-13T06:29:56.663Z,10
2019-03-13T06:30:29.405Z,5
2019-03-13T06:31:01.613Z,10
2019-03-13T06:31:33.941Z,10
2019-03-13T06:32:06.849Z,10
2019-03-13T06:32:38.831Z,10
2019-03-13T06:33:11.463Z,10
2019-03-13T06:33:43.784Z,10
2019-03-13T06:34:16.044Z,10
2019-03-13T06:34:48.929Z,10
2019-03-13T06:35:24.717Z,10
2019-03-13T06:35:59.901Z,10
2019-03-13T06:36:33.322Z,10
2019-03-13T06:37:06.702Z,10
2019-03-13T06:37:39.235Z,15
2019-03-13T06:38:11.253Z,15
2019-03-13T06:38:44.759Z,15
2019-03-13T06:39:16.731Z,15
2019-03-13T06:39:48.738Z,10
2019-03-13T06:40:20.753Z,10
2019-03-13T06:40:52.731Z,10
2019-03-13T06:41:24.724Z,10
2019-03-13T06:41:56.780Z,10
2019-03-13T06:42:28.766Z,10
2019-03-13T06:43:00.859Z,10
2019-03-13T06:43:32.839Z,10
2019-03-13T06:44:04.968Z,10
2019-03-13T06:44:37.068Z,10
2019-03-13T06:45:09.095Z,15
2019-03-13T06:45:41.122Z,15
2019-03-13T06:46:13.139Z,15
2019-03-13T06:46:45.127Z,15
2019-03-13T06:47:17.168Z,10
2019-03-13T06:47:49.160Z,10
2019-03-13T06:48:21.166Z,10
2019-03-13T06:48:53.170Z,10
2019-03-13T06:49:25.168Z,10
2019-03-13T06:49:57.145Z,15
2019-03-13T06:50:29.326Z,15
2019-03-13T06:51:01.359Z,15
2019-03-13T06:51:33.379Z,20
2019-03-13T06:52:05.490Z,20
2019-03-13T06:52:37.500Z,20
2019-03-13T06:53:09.552Z,20
2019-03-13T06:53:41.537Z,20
2019-03-13T06:54:13.530Z,20
2019-03-13T06:54:45.514Z,25
2019-03-13T06:55:17.588Z,25
2019-03-13T06:55:49.675Z,25
2019-03-13T06:56:21.924Z,25
2019-03-13T06:56:54.106Z,25
2019-03-13T06:57:26.286Z,25
2019-03-13T06:57:58.348Z,25
2019-03-13T06:58:30.381Z,25
2019-03-13T06:59:02.373Z,25
2019-03-13T06:59:34.360Z,25
2019-03-13T07:00:06.362Z,25
2019-03-13T07:00:38.400Z,20
2019-03-13T07:01:10.413Z,20
2019-03-13T07:01:42.392Z,20
2019-03-13T07:02:14.359Z,20
2019-03-13T07:02:46.363Z,20
2019-03-13T07:03:18.404Z,15
2019-03-13T07:03:50.393Z,15
2019-03-13T07:04:22.914Z,15
2019-03-13T07:04:54.908Z,20
2019-03-13T07:05:26.898Z,20
2019-03-13T07:05:58.880Z,20
2019-03-13T07:06:30.850Z,15
2019-03-13T07:07:02.844Z,15
2019-03-13T07:07:34.880Z,20
2019-03-13T07:08:06.874Z,25
2019-03-13T07:08:41.534Z,25
2019-03-13T07:09:13.531Z,25
2019-03-13T07:09:45.523Z,20
2019-03-13T07:10:17.500Z,20
2019-03-13T07:10:49.473Z,15
2019-03-13T07:11:21.572Z,15
2019-03-13T07:11:53.568Z,15
2019-03-13T07:12:25.564Z,15
2019-03-13T07:12:57.637Z,20
2019-03-13T07:13:29.670Z,20
2019-03-13T07:14:01.667Z,15
2019-03-13T07:14:33.684Z,15
2019-03-13T07:15:05.686Z,15
2019-03-13T07:15:37.692Z,15
2019-03-13T07:16:09.761Z,15
2019-03-13T07:16:41.771Z,10
2019-03-13T07:17:13.768Z,15
2019-03-13T07:17:45.746Z,10
2019-03-13T07:18:17.787Z,15
2019-03-13T07:18:49.833Z,15
2019-03-13T07:19:21.921Z,10
2019-03-13T07:19:53.980Z,15
2019-03-13T07:20:26.257Z,15
2019-03-13T07:20:58.248Z,20
2019-03-13T07:21:30.425Z,15
2019-03-13T07:22:02.461Z,20
2019-03-13T07:22:34.484Z,15
2019-03-13T07:23:06.596Z,20
2019-03-13T07:23:38.706Z,20
2019-03-13T07:24:11.018Z,15
2019-03-13T07:24:43.465Z,15
2019-03-13T07:25:15.729Z,20
2019-03-13T07:25:47.748Z,15
2019-03-13T07:26:19.724Z,15
2019-03-13T07:26:53.369Z,15
2019-03-13T07:27:25.534Z,15
2019-03-13T07:27:57.542Z,15
2019-03-13T07:28:29.674Z,15
2019-03-13T07:29:14.399Z,15
2019-03-13T07:29:46.764Z,15
2019-03-13T07:30:18.779Z,15
2019-03-13T07:30:51.031Z,20
2019-03-13T07:31:23.215Z,15
2019-03-13T07:31:55.383Z,15
2019-03-13T07:32:28.430Z,15
2019-03-13T07:33:00.670Z,20
2019-03-13T07:33:32.983Z,25
2019-03-13T07:34:05.155Z,25
2019-03-13T07:34:37.259Z,25
2019-03-13T07:35:09.304Z,25
2019-03-13T07:35:41.397Z,25
2019-03-13T07:36:13.571Z,30
2019-03-13T07:36:45.532Z,30
2019-03-13T07:37:17.632Z,35
2019-03-13T07:37:49.759Z,35
2019-03-13T07:38:21.903Z,40
2019-03-13T07:38:54.009Z,40
2019-03-13T07:39:26.141Z,40
2019-03-13T07:39:58.222Z,45
2019-03-13T07:40:30.423Z,50
2019-03-13T07:41:02.511Z,50
2019-03-13T07:41:37.233Z,50
2019-03-13T07:42:09.513Z,45
2019-03-13T07:42:41.497Z,45
2019-03-13T07:43:13.546Z,40
2019-03-13T07:43:45.524Z,40
2019-03-13T07:44:17.520Z,35
2019-03-13T07:44:49.526Z,35
2019-03-13T07:45:21.534Z,40
2019-03-13T07:45:53.566Z,40
2019-03-13T07:46:25.655Z,40
2019-03-13T07:46:57.836Z,40
2019-03-13T07:47:31.102Z,35
2019-03-13T07:48:03.195Z,35
2019-03-13T07:48:35.224Z,35
2019-03-13T07:49:07.429Z,35
2019-03-13T07:49:39.617Z,35
2019-03-13T07:50:11.732Z,35
2019-03-13T07:50:43.851Z,30
2019-03-13T07:51:15.853Z,30
2019-03-13T07:51:47.850Z,30
2019-03-13T07:52:19.852Z,40
2019-03-13T07:52:51.903Z,45
2019-03-13T07:53:23.890Z,40
2019-03-13T07:53:55.875Z,40
2019-03-13T07:54:27.889Z,35
2019-03-13T07:54:59.911Z,35
2019-03-13T07:55:32.046Z,40
2019-03-13T07:56:04.037Z,35
2019-03-13T07:56:36.045Z,40
2019-03-13T07:57:08.032Z,40
2019-03-13T07:57:40.068Z,45
2019-03-13T07:58:12.190Z,45
2019-03-13T07:58:45.802Z,45
2019-03-13T07:59:17.825Z,50
2019-03-13T07:59:49.861Z,50
2019-03-13T08:00:21.864Z,55
2019-03-13T08:00:53.931Z,55
2019-03-13T08:01:26.003Z,55
2019-03-13T08:01:57.995Z,60
2019-03-13T08:02:30.055Z,60
2019-03-13T08:03:02.121Z,60
2019-03-13T08:03:34.122Z,55
2019-03-13T08:04:07.275Z,50
2019-03-13T08:04:39.310Z,45
2019-03-13T08:05:11.355Z,40
2019-03-13T08:05:43.320Z,40
2019-03-13T08:06:15.424Z,40
2019-03-13T08:06:47.428Z,35
2019-03-13T08:07:19.439Z,35
2019-03-13T08:07:51.416Z,30
2019-03-13T08:08:23.431Z,25
2019-03-13T08:08:55.457Z,25
2019-03-13T08:09:27.447Z,25
2019-03-13T08:09:59.444Z,20
2019-03-13T08:10:31.468Z,20
2019-03-13T08:11:03.504Z,25
2019-03-13T08:11:35.566Z,25
2019-03-13T08:12:07.628Z,30
2019-03-13T08:12:39.690Z,30
2019-03-13T08:13:11.701Z,30
2019-03-13T08:13:43.710Z,30
2019-03-13T08:14:15.737Z,30
2019-03-13T08:14:47.719Z,35
2019-03-13T08:15:19.769Z,35
2019-03-13T08:15:51.793Z,35
2019-03-13T08:16:23.831Z,35
2019-03-13T08:16:55.823Z,30
2019-03-13T08:17:27.832Z,35
2019-03-13T08:17:59.849Z,45
2019-03-13T08:18:31.849Z,35
2019-03-13T08:19:03.873Z,35
2019-03-13T08:19:35.885Z,30
2019-03-13T08:20:07.932Z,30
2019-03-13T08:20:39.972Z,30
2019-03-13T08:21:11.968Z,30
2019-03-13T08:21:43.959Z,35
2019-03-13T08:22:15.967Z,35
2019-03-13T08:22:48.028Z,45
2019-03-13T08:23:20.019Z,45
2019-03-13T08:23:52.026Z,45
2019-03-13T08:24:24.013Z,50
2019-03-13T08:24:56.062Z,50
2019-03-13T08:25:28.061Z,50
2019-03-13T08:26:00.048Z,50
2019-03-13T08:26:32.035Z,50
2019-03-13T08:27:04.176Z,50
2019-03-13T08:27:36.185Z,45